sensor_id;sensor_type;location;lat;lon;timestamp;temperature;humidity
71297;SHT31;59082;50.658;4.608;2022-10-18T05:34:04;15.38;99.99
71297;SHT31;59082;50.658;4.608;2022-10-18T05:36:30;15.38;99.99
71297;SHT31;59082;50.658;4.608;2022-10-18T05:38:55;15.39;99.99
71297;SHT31;59082;50.658;4.608;2022-10-18T05:41:25;15.40;99.99
71297;SHT31;59082;50.658;4.608;2022-10-18T05:43:53;15.38;99.99
71297;SHT31;59082;50.658;4.608;2022-10-18T05:46:18;15.33;99.99
71297;SHT31;59082;50.658;4.608;2022-10-18T05:48:48;15.32;99.99
71297;SHT31;59082;50.658;4.608;2022-10-18T05:51:18;15.32;99.99
71297;SHT31;59082;50.658;4.608;2022-10-18T05:53:43;15.32;99.99
71297;SHT31;59082;50.658;4.608;2022-10-18T05:56:09;15.38;99.99
71297;SHT31;59082;50.658;4.608;2022-10-18T05:58:40;15.35;99.99
71297;SHT31;59082;50.658;4.608;2022-10-18T06:01:06;15.29;99.99
71297;SHT31;59082;50.658;4.608;2022-10-18T06:03:32;15.31;99.99
71297;SHT31;59082;50.658;4.608;2022-10-18T06:06:09;15.33;99.99
71297;SHT31;59082;50.658;4.608;2022-10-18T06:08:36;15.32;99.99
71297;SHT31;59082;50.658;4.608;2022-10-18T06:11:06;15.29;99.99
71297;SHT31;59082;50.658;4.608;2022-10-18T06:13:32;15.33;99.99
71297;SHT31;59082;50.658;4.608;2022-10-18T06:15:58;15.35;99.99
71297;SHT31;59082;50.658;4.608;2022-10-18T06:18:23;15.32;99.99
71297;SHT31;59082;50.658;4.608;2022-10-18T06:20:55;15.33;99.99
71297;SHT31;59082;50.658;4.608;2022-10-18T06:23:21;15.31;99.99
71297;SHT31;59082;50.658;4.608;2022-10-18T06:25:46;15.29;99.99
71297;SHT31;59082;50.658;4.608;2022-10-18T06:28:12;15.28;99.99
71297;SHT31;59082;50.658;4.608;2022-10-18T06:30:37;15.28;99.99
71297;SHT31;59082;50.658;4.608;2022-10-18T06:33:03;15.25;99.99
71297;SHT31;59082;50.658;4.608;2022-10-18T06:35:28;15.22;99.99
71297;SHT31;59082;50.658;4.608;2022-10-18T06:37:53;15.24;99.99
71297;SHT31;59082;50.658;4.608;2022-10-18T06:40:19;15.24;99.99
71297;SHT31;59082;50.658;4.608;2022-10-18T06:42:44;15.29;99.99
71297;SHT31;59082;50.658;4.608;2022-10-18T06:45:11;15.35;99.99
71297;SHT31;59082;50.658;4.608;2022-10-18T06:47:37;15.29;99.99
71297;SHT31;59082;50.658;4.608;2022-10-18T06:50:02;15.28;99.99
71297;SHT31;59082;50.658;4.608;2022-10-18T06:52:28;15.43;99.99
71297;SHT31;59082;50.658;4.608;2022-10-18T06:54:53;15.53;99.99
71297;SHT31;59082;50.658;4.608;2022-10-18T06:57:20;15.63;99.99
71297;SHT31;59082;50.658;4.608;2022-10-18T06:59:45;15.62;99.99
71297;SHT31;59082;50.658;4.608;2022-10-18T07:02:13;15.60;99.99
71297;SHT31;59082;50.658;4.608;2022-10-18T07:04:39;15.60;99.99
71297;SHT31;59082;50.658;4.608;2022-10-18T07:07:04;15.57;99.99
71297;SHT31;59082;50.658;4.608;2022-10-18T07:09:30;15.69;99.99
71297;SHT31;59082;50.658;4.608;2022-10-18T07:11:55;15.67;99.99
71297;SHT31;59082;50.658;4.608;2022-10-18T07:14:21;15.67;99.99
71297;SHT31;59082;50.658;4.608;2022-10-18T07:16:46;15.81;99.99
71297;SHT31;59082;50.658;4.608;2022-10-18T07:19:12;15.90;99.99
71297;SHT31;59082;50.658;4.608;2022-10-18T07:21:39;16.00;99.99
71297;SHT31;59082;50.658;4.608;2022-10-18T07:24:04;16.10;99.99
71297;SHT31;59082;50.658;4.608;2022-10-18T07:26:32;16.11;99.99
71297;SHT31;59082;50.658;4.608;2022-10-18T07:29:00;16.17;99.99
71297;SHT31;59082;50.658;4.608;2022-10-18T07:31:27;16.05;99.99
71297;SHT31;59082;50.658;4.608;2022-10-18T07:33:53;16.11;99.99
71297;SHT31;59082;50.658;4.608;2022-10-18T07:36:18;16.18;99.99
71297;SHT31;59082;50.658;4.608;2022-10-18T07:38:45;16.15;99.99
71297;SHT31;59082;50.658;4.608;2022-10-18T07:41:12;16.26;99.99
71297;SHT31;59082;50.658;4.608;2022-10-18T07:43:44;16.31;99.99
71297;SHT31;59082;50.658;4.608;2022-10-18T07:46:11;16.33;99.99
71297;SHT31;59082;50.658;4.608;2022-10-18T07:48:36;16.33;99.99
71297;SHT31;59082;50.658;4.608;2022-10-18T07:51:02;16.35;99.99
71297;SHT31;59082;50.658;4.608;2022-10-18T07:53:28;16.35;99.99
71297;SHT31;59082;50.658;4.608;2022-10-18T07:55:58;16.33;99.99
71297;SHT31;59082;50.658;4.608;2022-10-18T07:58:23;16.26;99.99
71297;SHT31;59082;50.658;4.608;2022-10-18T08:00:49;16.22;99.99
71297;SHT31;59082;50.658;4.608;2022-10-18T08:03:14;16.14;99.99
71297;SHT31;59082;50.658;4.608;2022-10-18T08:05:40;16.14;99.99
71297;SHT31;59082;50.658;4.608;2022-10-18T08:08:05;16.14;99.99
71297;SHT31;59082;50.658;4.608;2022-10-18T08:10:33;16.01;99.99
71297;SHT31;59082;50.658;4.608;2022-10-18T08:12:58;16.08;99.99
71297;SHT31;59082;50.658;4.608;2022-10-18T08:15:24;16.05;99.99
71297;SHT31;59082;50.658;4.608;2022-10-18T08:17:50;16.15;99.99
71297;SHT31;59082;50.658;4.608;2022-10-18T08:20:16;16.15;99.99
71297;SHT31;59082;50.658;4.608;2022-10-18T08:22:42;16.19;99.99
71297;SHT31;59082;50.658;4.608;2022-10-18T08:25:07;16.18;99.99
71297;SHT31;59082;50.658;4.608;2022-10-18T08:27:33;16.22;99.99
71297;SHT31;59082;50.658;4.608;2022-10-18T08:29:58;16.51;99.99
71297;SHT31;59082;50.658;4.608;2022-10-18T08:32:26;16.77;99.99
71297;SHT31;59082;50.658;4.608;2022-10-18T08:34:52;17.04;99.99
71297;SHT31;59082;50.658;4.608;2022-10-18T08:37:18;17.51;99.99
71297;SHT31;59082;50.658;4.608;2022-10-18T08:39:44;17.85;99.99
71297;SHT31;59082;50.658;4.608;2022-10-18T08:45:21;18.18;99.99
71297;SHT31;59082;50.658;4.608;2022-10-18T08:47:48;18.28;99.99
71297;SHT31;59082;50.658;4.608;2022-10-18T08:50:21;18.48;99.99
71297;SHT31;59082;50.658;4.608;2022-10-18T08:58:21;18.68;99.99
71297;SHT31;59082;50.658;4.608;2022-10-18T09:01:33;18.44;99.99
71297;SHT31;59082;50.658;4.608;2022-10-18T09:09:53;18.52;99.99
71297;SHT31;59082;50.658;4.608;2022-10-18T09:12:29;18.41;99.99
71297;SHT31;59082;50.658;4.608;2022-10-18T09:15:12;18.23;99.99
71297;SHT31;59082;50.658;4.608;2022-10-18T09:23:21;18.37;99.99
71297;SHT31;59082;50.658;4.608;2022-10-18T09:26:08;18.64;99.99
71297;SHT31;59082;50.658;4.608;2022-10-18T09:28:50;19.50;99.16
71297;SHT31;59082;50.658;4.608;2022-10-18T09:31:39;19.28;99.99
71297;SHT31;59082;50.658;4.608;2022-10-18T09:34:26;20.05;98.97
71297;SHT31;59082;50.658;4.608;2022-10-18T09:36:55;21.18;94.70
71297;SHT31;59082;50.658;4.608;2022-10-18T09:39:24;21.90;90.96
71297;SHT31;59082;50.658;4.608;2022-10-18T09:41:56;22.84;90.14
71297;SHT31;59082;50.658;4.608;2022-10-18T09:44:40;23.25;88.75
71297;SHT31;59082;50.658;4.608;2022-10-18T09:47:19;23.55;86.24
71297;SHT31;59082;50.658;4.608;2022-10-18T09:49:56;24.51;84.24
71297;SHT31;59082;50.658;4.608;2022-10-18T09:52:38;24.57;82.86
71297;SHT31;59082;50.658;4.608;2022-10-18T09:55:16;23.87;85.89
71297;SHT31;59082;50.658;4.608;2022-10-18T09:57:57;23.97;84.30
71297;SHT31;59082;50.658;4.608;2022-10-18T10:00:28;24.89;81.59
71297;SHT31;59082;50.658;4.608;2022-10-18T10:02:56;25.27;81.92
71297;SHT31;59082;50.658;4.608;2022-10-18T10:05:21;25.47;80.11
71297;SHT31;59082;50.658;4.608;2022-10-18T10:07:47;25.38;79.12
71297;SHT31;59082;50.658;4.608;2022-10-18T10:10:19;25.70;77.34
71297;SHT31;59082;50.658;4.608;2022-10-18T10:12:46;26.23;77.71
71297;SHT31;59082;50.658;4.608;2022-10-18T10:18:18;24.93;78.33
71297;SHT31;59082;50.658;4.608;2022-10-18T10:20:47;24.38;82.27
71297;SHT31;59082;50.658;4.608;2022-10-18T10:23:24;24.48;81.26
71297;SHT31;59082;50.658;4.608;2022-10-18T10:26:02;25.27;81.01
71297;SHT31;59082;50.658;4.608;2022-10-18T10:28:33;26.37;77.65
71297;SHT31;59082;50.658;4.608;2022-10-18T10:31:27;27.41;74.27
71297;SHT31;59082;50.658;4.608;2022-10-18T10:34:04;28.08;73.45
71297;SHT31;59082;50.658;4.608;2022-10-18T10:36:31;29.30;72.14
71297;SHT31;59082;50.658;4.608;2022-10-18T10:41:28;29.88;67.76
71297;SHT31;59082;50.658;4.608;2022-10-18T10:43:54;29.38;69.05
71297;SHT31;59082;50.658;4.608;2022-10-18T10:46:20;29.35;68.83
71297;SHT31;59082;50.658;4.608;2022-10-18T10:51:37;28.28;70.79
71297;SHT31;59082;50.658;4.608;2022-10-18T10:54:03;28.75;69.68
71297;SHT31;59082;50.658;4.608;2022-10-18T10:56:32;29.28;69.02
71297;SHT31;59082;50.658;4.608;2022-10-18T10:59:14;29.98;66.77
71297;SHT31;59082;50.658;4.608;2022-10-18T11:01:40;30.92;66.48
71297;SHT31;59082;50.658;4.608;2022-10-18T11:04:42;31.66;62.98
71297;SHT31;59082;50.658;4.608;2022-10-18T11:12:35;32.56;62.24
71297;SHT31;59082;50.658;4.608;2022-10-18T11:20:37;34.48;58.56
71297;SHT31;59082;50.658;4.608;2022-10-18T11:23:10;35.33;57.73
71297;SHT31;59082;50.658;4.608;2022-10-18T11:25:45;35.80;58.58
71297;SHT31;59082;50.658;4.608;2022-10-18T11:31:13;37.31;54.52
71297;SHT31;59082;50.658;4.608;2022-10-18T11:42:15;39.47;50.30
71297;SHT31;59082;50.658;4.608;2022-10-18T11:44:55;38.30;51.29
71297;SHT31;59082;50.658;4.608;2022-10-18T11:50:08;32.18;58.61
71297;SHT31;59082;50.658;4.608;2022-10-18T11:55:54;26.26;68.97
71297;SHT31;59082;50.658;4.608;2022-10-18T11:58:51;25.43;70.20
71297;SHT31;59082;50.658;4.608;2022-10-18T12:01:35;25.31;71.20
71297;SHT31;59082;50.658;4.608;2022-10-18T12:04:03;24.75;72.16
71297;SHT31;59082;50.658;4.608;2022-10-18T12:06:40;24.43;72.03
71297;SHT31;59082;50.658;4.608;2022-10-18T12:09:27;24.14;74.58
71297;SHT31;59082;50.658;4.608;2022-10-18T12:11:59;24.09;74.60
71297;SHT31;59082;50.658;4.608;2022-10-18T12:14:29;23.35;75.52
71297;SHT31;59082;50.658;4.608;2022-10-18T12:17:02;22.79;78.21
71297;SHT31;59082;50.658;4.608;2022-10-18T12:19:30;22.51;77.86
71297;SHT31;59082;50.658;4.608;2022-10-18T12:22:09;21.98;77.90
71297;SHT31;59082;50.658;4.608;2022-10-18T12:24:36;21.51;78.61
71297;SHT31;59082;50.658;4.608;2022-10-18T12:27:02;21.29;80.40
71297;SHT31;59082;50.658;4.608;2022-10-18T12:32:17;20.54;82.15
71297;SHT31;59082;50.658;4.608;2022-10-18T12:34:57;20.57;82.18
71297;SHT31;59082;50.658;4.608;2022-10-18T12:42:48;20.15;83.42
71297;SHT31;59082;50.658;4.608;2022-10-18T12:47:57;19.92;83.08
71297;SHT31;59082;50.658;4.608;2022-10-18T12:50:38;19.81;83.55
71297;SHT31;59082;50.658;4.608;2022-10-18T12:53:23;20.08;82.77
71297;SHT31;59082;50.658;4.608;2022-10-18T12:55:51;19.91;84.35
71297;SHT31;59082;50.658;4.608;2022-10-18T12:58:23;19.75;83.70
71297;SHT31;59082;50.658;4.608;2022-10-18T13:08:43;20.05;84.37
71297;SHT31;59082;50.658;4.608;2022-10-18T13:16:32;19.91;84.91
71297;SHT31;59082;50.658;4.608;2022-10-18T13:24:46;20.20;84.46
71297;SHT31;59082;50.658;4.608;2022-10-18T13:27:59;20.73;83.59
71297;SHT31;59082;50.658;4.608;2022-10-18T13:30:38;23.08;79.29
71297;SHT31;59082;50.658;4.608;2022-10-18T13:36:01;21.63;80.97
71297;SHT31;59082;50.658;4.608;2022-10-18T13:38:38;21.96;80.35
71297;SHT31;59082;50.658;4.608;2022-10-18T13:41:20;21.81;80.85
71297;SHT31;59082;50.658;4.608;2022-10-18T13:46:22;20.92;82.42
71297;SHT31;59082;50.658;4.608;2022-10-18T13:48:50;20.73;83.27
71297;SHT31;59082;50.658;4.608;2022-10-18T14:06:01;20.00;85.20
71297;SHT31;59082;50.658;4.608;2022-10-18T14:08:39;20.23;84.34
71297;SHT31;59082;50.658;4.608;2022-10-18T14:17:07;19.64;85.04
71297;SHT31;59082;50.658;4.608;2022-10-18T14:19:38;19.55;84.73
71297;SHT31;59082;50.658;4.608;2022-10-18T14:22:27;19.58;85.87
71297;SHT31;59082;50.658;4.608;2022-10-18T14:24:57;19.88;86.19
71297;SHT31;59082;50.658;4.608;2022-10-18T14:27:30;20.47;84.15
71297;SHT31;59082;50.658;4.608;2022-10-18T14:30:14;20.36;83.96
71297;SHT31;59082;50.658;4.608;2022-10-18T14:32:48;20.25;84.23
71297;SHT31;59082;50.658;4.608;2022-10-18T14:35:17;20.17;84.23
71297;SHT31;59082;50.658;4.608;2022-10-18T14:37:46;19.74;84.61
71297;SHT31;59082;50.658;4.608;2022-10-18T14:40:32;19.53;85.52
71297;SHT31;59082;50.658;4.608;2022-10-18T14:43:18;19.27;85.83
71297;SHT31;59082;50.658;4.608;2022-10-18T14:45:44;19.09;86.81
71297;SHT31;59082;50.658;4.608;2022-10-18T14:48:14;19.02;87.20
71297;SHT31;59082;50.658;4.608;2022-10-18T14:50:41;18.88;87.48
71297;SHT31;59082;50.658;4.608;2022-10-18T14:53:14;18.86;87.87
71297;SHT31;59082;50.658;4.608;2022-10-18T14:55:41;18.79;87.91
71297;SHT31;59082;50.658;4.608;2022-10-18T14:58:14;18.58;88.80
71297;SHT31;59082;50.658;4.608;2022-10-18T15:00:40;18.43;89.25
71297;SHT31;59082;50.658;4.608;2022-10-18T15:03:11;18.33;89.18
71297;SHT31;59082;50.658;4.608;2022-10-18T15:05:58;18.36;89.43
71297;SHT31;59082;50.658;4.608;2022-10-18T15:08:28;18.23;88.98
71297;SHT31;59082;50.658;4.608;2022-10-18T15:10:55;18.16;89.28
71297;SHT31;59082;50.658;4.608;2022-10-18T15:13:21;18.07;90.33
71297;SHT31;59082;50.658;4.608;2022-10-18T15:15:49;18.01;89.17
71297;SHT31;59082;50.658;4.608;2022-10-18T15:18:21;17.93;90.14
71297;SHT31;59082;50.658;4.608;2022-10-18T15:21:06;17.86;89.87
71297;SHT31;59082;50.658;4.608;2022-10-18T15:23:32;17.79;90.65
71297;SHT31;59082;50.658;4.608;2022-10-18T15:26:07;17.73;90.22
71297;SHT31;59082;50.658;4.608;2022-10-18T15:28:44;17.68;89.42
71297;SHT31;59082;50.658;4.608;2022-10-18T15:31:38;17.63;90.70
71297;SHT31;59082;50.658;4.608;2022-10-18T15:34:33;17.56;90.99
71297;SHT31;59082;50.658;4.608;2022-10-18T15:37:15;17.52;90.59
71297;SHT31;59082;50.658;4.608;2022-10-18T15:39:41;17.48;90.73
71297;SHT31;59082;50.658;4.608;2022-10-18T15:42:33;17.41;90.82
71297;SHT31;59082;50.658;4.608;2022-10-18T15:44:59;17.35;90.60
71297;SHT31;59082;50.658;4.608;2022-10-18T15:47:24;17.28;91.31
71297;SHT31;59082;50.658;4.608;2022-10-18T15:49:54;17.24;89.99
71297;SHT31;59082;50.658;4.608;2022-10-18T15:54:46;17.17;90.15
71297;SHT31;59082;50.658;4.608;2022-10-18T15:57:12;17.08;90.20
71297;SHT31;59082;50.658;4.608;2022-10-18T15:59:50;17.03;91.11
71297;SHT31;59082;50.658;4.608;2022-10-18T16:02:17;16.93;91.52
71297;SHT31;59082;50.658;4.608;2022-10-18T16:04:43;16.83;91.18
71297;SHT31;59082;50.658;4.608;2022-10-18T16:07:10;16.77;91.73
71297;SHT31;59082;50.658;4.608;2022-10-18T16:09:36;16.72;92.44
71297;SHT31;59082;50.658;4.608;2022-10-18T16:12:02;16.60;92.61
71297;SHT31;59082;50.658;4.608;2022-10-18T16:14:29;16.52;93.41
71297;SHT31;59082;50.658;4.608;2022-10-18T16:16:58;16.39;94.05
71297;SHT31;59082;50.658;4.608;2022-10-18T16:19:24;16.35;94.38
71297;SHT31;59082;50.658;4.608;2022-10-18T16:21:52;16.22;94.95
71297;SHT31;59082;50.658;4.608;2022-10-18T16:24:18;16.14;95.47
71297;SHT31;59082;50.658;4.608;2022-10-18T16:26:44;16.07;95.75
71297;SHT31;59082;50.658;4.608;2022-10-18T16:29:19;15.97;96.24
71297;SHT31;59082;50.658;4.608;2022-10-18T16:31:49;15.86;96.61
71297;SHT31;59082;50.658;4.608;2022-10-18T16:34:16;15.76;97.07
71297;SHT31;59082;50.658;4.608;2022-10-18T16:36:45;15.70;97.43
71297;SHT31;59082;50.658;4.608;2022-10-18T16:39:15;15.57;97.59
71297;SHT31;59082;50.658;4.608;2022-10-18T16:41:42;15.52;97.82
71297;SHT31;59082;50.658;4.608;2022-10-18T16:44:11;15.40;98.06
71297;SHT31;59082;50.658;4.608;2022-10-18T16:46:38;15.35;98.27
71297;SHT31;59082;50.658;4.608;2022-10-18T16:49:05;15.29;98.20
71297;SHT31;59082;50.658;4.608;2022-10-18T16:51:31;15.24;98.81
71297;SHT31;59082;50.658;4.608;2022-10-18T16:53:57;15.14;99.17
71297;SHT31;59082;50.658;4.608;2022-10-18T16:56:30;15.11;99.33
71297;SHT31;59082;50.658;4.608;2022-10-18T16:58:57;15.04;99.77
71297;SHT31;59082;50.658;4.608;2022-10-18T17:01:23;14.95;99.96
71297;SHT31;59082;50.658;4.608;2022-10-18T17:03:50;14.92;99.99
71297;SHT31;59082;50.658;4.608;2022-10-18T17:06:22;14.83;99.99
71297;SHT31;59082;50.658;4.608;2022-10-18T17:08:49;14.78;99.99
71297;SHT31;59082;50.658;4.608;2022-10-18T17:11:15;14.71;99.99
71297;SHT31;59082;50.658;4.608;2022-10-18T17:13:41;14.67;99.99
71297;SHT31;59082;50.658;4.608;2022-10-18T17:16:38;14.61;99.99
71297;SHT31;59082;50.658;4.608;2022-10-18T17:19:06;14.59;99.99
71297;SHT31;59082;50.658;4.608;2022-10-18T17:21:32;14.55;99.99
71297;SHT31;59082;50.658;4.608;2022-10-18T17:23:58;14.51;99.99
71297;SHT31;59082;50.658;4.608;2022-10-18T17:26:25;14.50;99.99
71297;SHT31;59082;50.658;4.608;2022-10-18T17:28:53;14.49;99.99
71297;SHT31;59082;50.658;4.608;2022-10-18T17:31:19;14.43;99.99
71297;SHT31;59082;50.658;4.608;2022-10-18T17:33:45;14.40;99.99
71297;SHT31;59082;50.658;4.608;2022-10-18T17:36:11;14.37;99.99
71297;SHT31;59082;50.658;4.608;2022-10-18T17:38:36;14.32;99.99
71297;SHT31;59082;50.658;4.608;2022-10-18T17:41:08;14.30;99.99
71297;SHT31;59082;50.658;4.608;2022-10-18T17:43:37;14.25;99.99
71297;SHT31;59082;50.658;4.608;2022-10-18T17:46:03;14.22;99.99
71297;SHT31;59082;50.658;4.608;2022-10-18T17:48:29;14.23;99.99
71297;SHT31;59082;50.658;4.608;2022-10-18T17:50:55;14.20;99.99
71297;SHT31;59082;50.658;4.608;2022-10-18T17:53:21;14.18;99.99
71297;SHT31;59082;50.658;4.608;2022-10-18T17:55:58;14.16;99.99
71297;SHT31;59082;50.658;4.608;2022-10-18T17:58:24;14.12;99.99
71297;SHT31;59082;50.658;4.608;2022-10-18T18:00:50;14.11;99.99
71297;SHT31;59082;50.658;4.608;2022-10-18T18:03:15;14.08;99.99
71297;SHT31;59082;50.658;4.608;2022-10-18T18:05:41;14.04;99.99
71297;SHT31;59082;50.658;4.608;2022-10-18T18:08:06;13.98;99.99
71297;SHT31;59082;50.658;4.608;2022-10-18T18:10:33;13.97;99.99
71297;SHT31;59082;50.658;4.608;2022-10-18T18:12:59;13.94;99.99
71297;SHT31;59082;50.658;4.608;2022-10-18T18:15:24;13.85;99.99
71297;SHT31;59082;50.658;4.608;2022-10-18T18:17:50;13.82;99.99
71297;SHT31;59082;50.658;4.608;2022-10-18T18:20:15;13.77;99.99
71297;SHT31;59082;50.658;4.608;2022-10-18T18:22:41;13.70;99.99
71297;SHT31;59082;50.658;4.608;2022-10-18T18:25:07;13.67;99.99
71297;SHT31;59082;50.658;4.608;2022-10-18T18:27:34;13.61;99.99
71297;SHT31;59082;50.658;4.608;2022-10-18T18:30:00;13.57;99.99
71297;SHT31;59082;50.658;4.608;2022-10-18T18:32:25;13.55;99.99
71297;SHT31;59082;50.658;4.608;2022-10-18T18:34:51;13.51;99.99
71297;SHT31;59082;50.658;4.608;2022-10-18T18:37:16;13.46;99.99
71297;SHT31;59082;50.658;4.608;2022-10-18T18:39:42;13.40;99.99
71297;SHT31;59082;50.658;4.608;2022-10-18T18:42:07;13.42;99.99
71297;SHT31;59082;50.658;4.608;2022-10-18T18:44:35;13.40;99.99
71297;SHT31;59082;50.658;4.608;2022-10-18T18:47:01;13.34;99.99
71297;SHT31;59082;50.658;4.608;2022-10-18T18:49:26;13.27;99.99
71297;SHT31;59082;50.658;4.608;2022-10-18T18:51:52;13.22;99.99
71297;SHT31;59082;50.658;4.608;2022-10-18T18:54:18;13.19;99.99
71297;SHT31;59082;50.658;4.608;2022-10-18T18:56:44;13.13;99.99
71297;SHT31;59082;50.658;4.608;2022-10-18T18:59:14;13.06;99.99
71297;SHT31;59082;50.658;4.608;2022-10-18T19:01:39;13.05;99.99
71297;SHT31;59082;50.658;4.608;2022-10-18T19:04:09;12.99;99.99
71297;SHT31;59082;50.658;4.608;2022-10-18T19:06:42;12.92;99.99
71297;SHT31;59082;50.658;4.608;2022-10-18T19:09:13;12.89;99.99
71297;SHT31;59082;50.658;4.608;2022-10-18T19:11:54;12.87;99.99
71297;SHT31;59082;50.658;4.608;2022-10-18T19:14:21;12.84;99.99
71297;SHT31;59082;50.658;4.608;2022-10-18T19:16:49;12.81;99.99
71297;SHT31;59082;50.658;4.608;2022-10-18T19:19:17;12.77;99.99
71297;SHT31;59082;50.658;4.608;2022-10-18T19:21:53;12.75;99.99
71297;SHT31;59082;50.658;4.608;2022-10-18T19:24:21;12.71;99.99
71297;SHT31;59082;50.658;4.608;2022-10-18T19:26:53;12.72;99.99
71297;SHT31;59082;50.658;4.608;2022-10-18T20:44:22;12.34;99.99
71297;SHT31;59082;50.658;4.608;2022-10-18T20:46:50;12.29;99.99
71297;SHT31;59082;50.658;4.608;2022-10-18T20:49:16;12.27;99.99
71297;SHT31;59082;50.658;4.608;2022-10-18T20:51:42;12.27;99.99
71297;SHT31;59082;50.658;4.608;2022-10-18T20:54:08;12.21;99.99
71297;SHT31;59082;50.658;4.608;2022-10-18T20:56:34;12.20;99.99
71297;SHT31;59082;50.658;4.608;2022-10-18T20:59:02;12.19;99.99
71297;SHT31;59082;50.658;4.608;2022-10-18T21:01:31;12.16;99.99
71297;SHT31;59082;50.658;4.608;2022-10-18T21:04:00;12.12;99.99
71297;SHT31;59082;50.658;4.608;2022-10-18T21:06:31;12.07;99.99
71297;SHT31;59082;50.658;4.608;2022-10-18T21:08:58;12.06;99.99
71297;SHT31;59082;50.658;4.608;2022-10-18T21:11:25;12.04;99.99
71297;SHT31;59082;50.658;4.608;2022-10-18T21:13:53;12.03;99.99
71297;SHT31;59082;50.658;4.608;2022-10-18T21:16:19;11.99;99.99
71297;SHT31;59082;50.658;4.608;2022-10-18T21:18:45;11.96;99.99
71297;SHT31;59082;50.658;4.608;2022-10-18T21:21:11;11.90;99.99
